sensor_id;sensor_type;location;lat;lon;timestamp;P1;durP1;ratioP1;P2;durP2;ratioP2
58758;SDS011;46777;47.482;19.054;2022-07-12T00:02:06;5.80;;;5.20;;
58758;SDS011;46777;47.482;19.054;2022-07-12T00:04:51;7.22;;;5.20;;
58758;SDS011;46777;47.482;19.054;2022-07-12T00:07:36;6.78;;;5.07;;
58758;SDS011;46777;47.482;19.054;2022-07-12T00:10:21;4.70;;;4.20;;
58758;SDS011;46777;47.482;19.054;2022-07-12T00:13:05;4.95;;;3.88;;
58758;SDS011;46777;47.482;19.054;2022-07-12T00:15:50;6.47;;;4.00;;
58758;SDS011;46777;47.482;19.054;2022-07-12T00:18:35;6.28;;;4.53;;
58758;SDS011;46777;47.482;19.054;2022-07-12T00:21:20;4.75;;;4.00;;
58758;SDS011;46777;47.482;19.054;2022-07-12T00:24:04;5.22;;;4.10;;
58758;SDS011;46777;47.482;19.054;2022-07-12T00:26:49;4.78;;;4.30;;
58758;SDS011;46777;47.482;19.054;2022-07-12T00:29:35;4.25;;;3.92;;
58758;SDS011;46777;47.482;19.054;2022-07-12T00:32:20;4.90;;;4.00;;
58758;SDS011;46777;47.482;19.054;2022-07-12T00:35:05;4.75;;;4.03;;
58758;SDS011;46777;47.482;19.054;2022-07-12T00:37:50;5.68;;;3.80;;
58758;SDS011;46777;47.482;19.054;2022-07-12T00:40:35;5.63;;;4.60;;
58758;SDS011;46777;47.482;19.054;2022-07-12T00:43:20;5.00;;;4.50;;
58758;SDS011;46777;47.482;19.054;2022-07-12T00:46:04;5.10;;;4.53;;
58758;SDS011;46777;47.482;19.054;2022-07-12T00:48:50;7.50;;;4.68;;
58758;SDS011;46777;47.482;19.054;2022-07-12T00:51:35;4.28;;;3.90;;
58758;SDS011;46777;47.482;19.054;2022-07-12T00:54:20;4.90;;;4.40;;
58758;SDS011;46777;47.482;19.054;2022-07-12T00:57:04;6.13;;;5.28;;
58758;SDS011;46777;47.482;19.054;2022-07-12T00:59:49;7.35;;;4.40;;
58758;SDS011;46777;47.482;19.054;2022-07-12T01:02:34;5.63;;;3.92;;
58758;SDS011;46777;47.482;19.054;2022-07-12T01:05:21;4.13;;;3.80;;
58758;SDS011;46777;47.482;19.054;2022-07-12T01:08:06;4.40;;;4.00;;
58758;SDS011;46777;47.482;19.054;2022-07-12T01:10:51;4.97;;;3.70;;
58758;SDS011;46777;47.482;19.054;2022-07-12T01:13:37;3.80;;;3.50;;
58758;SDS011;46777;47.482;19.054;2022-07-12T01:16:21;4.47;;;3.20;;
58758;SDS011;46777;47.482;19.054;2022-07-12T01:19:07;4.75;;;3.47;;
58758;SDS011;46777;47.482;19.054;2022-07-12T01:21:59;4.10;;;3.63;;
58758;SDS011;46777;47.482;19.054;2022-07-12T01:24:46;4.47;;;3.75;;
58758;SDS011;46777;47.482;19.054;2022-07-12T01:27:30;3.83;;;3.53;;
58758;SDS011;46777;47.482;19.054;2022-07-12T01:30:15;4.60;;;3.70;;
58758;SDS011;46777;47.482;19.054;2022-07-12T01:33:00;4.10;;;3.70;;
58758;SDS011;46777;47.482;19.054;2022-07-12T01:35:45;4.25;;;3.85;;
58758;SDS011;46777;47.482;19.054;2022-07-12T01:38:31;4.13;;;3.70;;
58758;SDS011;46777;47.482;19.054;2022-07-12T01:41:16;5.68;;;4.07;;
58758;SDS011;46777;47.482;19.054;2022-07-12T01:44:01;4.43;;;3.45;;
58758;SDS011;46777;47.482;19.054;2022-07-12T01:46:45;4.90;;;3.78;;
58758;SDS011;46777;47.482;19.054;2022-07-12T01:49:30;4.40;;;3.85;;
58758;SDS011;46777;47.482;19.054;2022-07-12T01:52:15;3.90;;;3.60;;
58758;SDS011;46777;47.482;19.054;2022-07-12T01:55:01;4.00;;;3.60;;
58758;SDS011;46777;47.482;19.054;2022-07-12T01:57:46;3.55;;;3.35;;
58758;SDS011;46777;47.482;19.054;2022-07-12T02:00:31;4.00;;;3.60;;
58758;SDS011;46777;47.482;19.054;2022-07-12T02:03:19;4.38;;;3.63;;
58758;SDS011;46777;47.482;19.054;2022-07-12T02:06:04;3.90;;;3.60;;
58758;SDS011;46777;47.482;19.054;2022-07-12T02:08:49;4.07;;;3.70;;
58758;SDS011;46777;47.482;19.054;2022-07-12T02:11:34;4.03;;;3.55;;
58758;SDS011;46777;47.482;19.054;2022-07-12T02:14:19;5.07;;;3.50;;
58758;SDS011;46777;47.482;19.054;2022-07-12T02:17:05;3.95;;;3.40;;
58758;SDS011;46777;47.482;19.054;2022-07-12T02:19:49;4.75;;;3.80;;
58758;SDS011;46777;47.482;19.054;2022-07-12T02:22:34;4.63;;;3.70;;
58758;SDS011;46777;47.482;19.054;2022-07-12T02:25:19;4.38;;;4.07;;
58758;SDS011;46777;47.482;19.054;2022-07-12T02:28:04;4.25;;;3.63;;
58758;SDS011;46777;47.482;19.054;2022-07-12T02:30:49;4.47;;;4.07;;
58758;SDS011;46777;47.482;19.054;2022-07-12T02:33:34;3.92;;;3.63;;
58758;SDS011;46777;47.482;19.054;2022-07-12T02:36:19;6.20;;;3.83;;
58758;SDS011;46777;47.482;19.054;2022-07-12T02:39:04;5.22;;;4.45;;
58758;SDS011;46777;47.482;19.054;2022-07-12T02:41:49;5.05;;;3.78;;
58758;SDS011;46777;47.482;19.054;2022-07-12T02:44:33;5.18;;;3.80;;
58758;SDS011;46777;47.482;19.054;2022-07-12T02:47:18;4.53;;;3.88;;
58758;SDS011;46777;47.482;19.054;2022-07-12T02:50:03;4.18;;;3.78;;
58758;SDS011;46777;47.482;19.054;2022-07-12T02:52:48;4.40;;;3.97;;
58758;SDS011;46777;47.482;19.054;2022-07-12T02:55:34;5.93;;;3.90;;
58758;SDS011;46777;47.482;19.054;2022-07-12T02:58:19;4.10;;;3.80;;
58758;SDS011;46777;47.482;19.054;2022-07-12T03:01:03;4.50;;;4.07;;
58758;SDS011;46777;47.482;19.054;2022-07-12T03:03:48;4.43;;;4.00;;
58758;SDS011;46777;47.482;19.054;2022-07-12T03:06:33;4.18;;;3.78;;
58758;SDS011;46777;47.482;19.054;2022-07-12T03:09:17;4.20;;;3.90;;
58758;SDS011;46777;47.482;19.054;2022-07-12T03:12:03;4.80;;;3.53;;
58758;SDS011;46777;47.482;19.054;2022-07-12T03:14:48;3.88;;;3.58;;
58758;SDS011;46777;47.482;19.054;2022-07-12T03:17:33;4.10;;;3.80;;
58758;SDS011;46777;47.482;19.054;2022-07-12T03:20:18;4.43;;;3.97;;
58758;SDS011;46777;47.482;19.054;2022-07-12T03:23:03;4.03;;;3.72;;
58758;SDS011;46777;47.482;19.054;2022-07-12T03:25:48;4.53;;;3.90;;
58758;SDS011;46777;47.482;19.054;2022-07-12T03:28:33;4.10;;;3.70;;
58758;SDS011;46777;47.482;19.054;2022-07-12T03:31:17;4.10;;;3.80;;
58758;SDS011;46777;47.482;19.054;2022-07-12T03:34:02;4.70;;;4.30;;
58758;SDS011;46777;47.482;19.054;2022-07-12T03:36:47;4.55;;;4.10;;
58758;SDS011;46777;47.482;19.054;2022-07-12T03:39:32;4.18;;;3.88;;
58758;SDS011;46777;47.482;19.054;2022-07-12T03:42:17;4.47;;;4.07;;
58758;SDS011;46777;47.482;19.054;2022-07-12T03:45:02;4.72;;;3.90;;
58758;SDS011;46777;47.482;19.054;2022-07-12T03:47:48;4.50;;;4.10;;
58758;SDS011;46777;47.482;19.054;2022-07-12T03:50:32;6.05;;;4.20;;
58758;SDS011;46777;47.482;19.054;2022-07-12T03:53:17;4.07;;;3.78;;
58758;SDS011;46777;47.482;19.054;2022-07-12T03:56:02;4.47;;;4.07;;
58758;SDS011;46777;47.482;19.054;2022-07-12T03:58:46;5.25;;;4.20;;
58758;SDS011;46777;47.482;19.054;2022-07-12T04:01:31;5.10;;;4.60;;
58758;SDS011;46777;47.482;19.054;2022-07-12T04:04:17;4.80;;;4.40;;
58758;SDS011;46777;47.482;19.054;2022-07-12T04:07:02;4.43;;;4.03;;
58758;SDS011;46777;47.482;19.054;2022-07-12T04:09:47;4.40;;;4.00;;
58758;SDS011;46777;47.482;19.054;2022-07-12T04:12:32;4.68;;;4.28;;
58758;SDS011;46777;47.482;19.054;2022-07-12T04:15:18;4.20;;;3.83;;
58758;SDS011;46777;47.482;19.054;2022-07-12T04:18:03;5.05;;;4.10;;
58758;SDS011;46777;47.482;19.054;2022-07-12T04:20:48;4.32;;;3.92;;
58758;SDS011;46777;47.482;19.054;2022-07-12T04:23:33;5.15;;;3.95;;
58758;SDS011;46777;47.482;19.054;2022-07-12T04:26:18;5.72;;;4.28;;
58758;SDS011;46777;47.482;19.054;2022-07-12T04:29:03;4.85;;;4.45;;
58758;SDS011;46777;47.482;19.054;2022-07-12T04:31:48;5.10;;;4.70;;
58758;SDS011;46777;47.482;19.054;2022-07-12T04:34:32;5.10;;;4.70;;
58758;SDS011;46777;47.482;19.054;2022-07-12T04:37:17;5.60;;;4.35;;
58758;SDS011;46777;47.482;19.054;2022-07-12T04:40:02;4.55;;;4.25;;
58758;SDS011;46777;47.482;19.054;2022-07-12T04:42:47;5.90;;;4.40;;
58758;SDS011;46777;47.482;19.054;2022-07-12T04:45:32;6.38;;;4.40;;
58758;SDS011;46777;47.482;19.054;2022-07-12T04:48:17;4.63;;;4.30;;
58758;SDS011;46777;47.482;19.054;2022-07-12T04:51:02;4.30;;;4.00;;
58758;SDS011;46777;47.482;19.054;2022-07-12T04:53:47;4.93;;;4.53;;
58758;SDS011;46777;47.482;19.054;2022-07-12T04:56:32;4.70;;;4.30;;
58758;SDS011;46777;47.482;19.054;2022-07-12T04:59:17;5.03;;;4.32;;
58758;SDS011;46777;47.482;19.054;2022-07-12T05:02:02;4.75;;;4.30;;
58758;SDS011;46777;47.482;19.054;2022-07-12T05:04:47;5.00;;;4.45;;
58758;SDS011;46777;47.482;19.054;2022-07-12T05:07:31;5.53;;;4.38;;
58758;SDS011;46777;47.482;19.054;2022-07-12T05:10:16;5.70;;;4.43;;
58758;SDS011;46777;47.482;19.054;2022-07-12T05:13:01;4.63;;;4.30;;
58758;SDS011;46777;47.482;19.054;2022-07-12T05:15:46;5.10;;;4.70;;
58758;SDS011;46777;47.482;19.054;2022-07-12T05:18:31;4.82;;;4.38;;
58758;SDS011;46777;47.482;19.054;2022-07-12T05:21:16;5.07;;;4.60;;
58758;SDS011;46777;47.482;19.054;2022-07-12T05:24:01;4.95;;;4.55;;
58758;SDS011;46777;47.482;19.054;2022-07-12T05:26:47;5.25;;;4.78;;
58758;SDS011;46777;47.482;19.054;2022-07-12T05:29:32;5.32;;;4.85;;
58758;SDS011;46777;47.482;19.054;2022-07-12T05:32:17;5.60;;;5.10;;
58758;SDS011;46777;47.482;19.054;2022-07-12T05:35:02;5.63;;;5.13;;
58758;SDS011;46777;47.482;19.054;2022-07-12T05:37:46;5.65;;;5.13;;
58758;SDS011;46777;47.482;19.054;2022-07-12T05:40:31;5.28;;;4.88;;
58758;SDS011;46777;47.482;19.054;2022-07-12T05:43:16;5.07;;;4.68;;
58758;SDS011;46777;47.482;19.054;2022-07-12T05:46:01;5.63;;;5.13;;
58758;SDS011;46777;47.482;19.054;2022-07-12T05:48:46;5.43;;;5.03;;
58758;SDS011;46777;47.482;19.054;2022-07-12T05:51:31;4.63;;;4.25;;
58758;SDS011;46777;47.482;19.054;2022-07-12T05:54:34;4.75;;;4.25;;
58758;SDS011;46777;47.482;19.054;2022-07-12T05:57:19;5.38;;;4.45;;
58758;SDS011;46777;47.482;19.054;2022-07-12T06:00:03;5.70;;;4.90;;
58758;SDS011;46777;47.482;19.054;2022-07-12T06:02:49;5.20;;;4.80;;
58758;SDS011;46777;47.482;19.054;2022-07-12T06:05:33;4.97;;;4.68;;
58758;SDS011;46777;47.482;19.054;2022-07-12T06:08:18;6.60;;;4.57;;
58758;SDS011;46777;47.482;19.054;2022-07-12T06:11:03;5.43;;;4.70;;
58758;SDS011;46777;47.482;19.054;2022-07-12T06:13:48;5.05;;;4.50;;
58758;SDS011;46777;47.482;19.054;2022-07-12T06:16:34;5.22;;;4.53;;
58758;SDS011;46777;47.482;19.054;2022-07-12T06:19:19;4.63;;;4.30;;
58758;SDS011;46777;47.482;19.054;2022-07-12T06:22:04;4.63;;;4.22;;
58758;SDS011;46777;47.482;19.054;2022-07-12T06:24:49;5.05;;;4.65;;
58758;SDS011;46777;47.482;19.054;2022-07-12T06:27:34;5.15;;;4.63;;
58758;SDS011;46777;47.482;19.054;2022-07-12T06:30:19;5.38;;;4.90;;
58758;SDS011;46777;47.482;19.054;2022-07-12T06:33:05;5.65;;;5.05;;
58758;SDS011;46777;47.482;19.054;2022-07-12T06:35:49;5.50;;;5.10;;
58758;SDS011;46777;47.482;19.054;2022-07-12T06:38:34;5.25;;;4.85;;
58758;SDS011;46777;47.482;19.054;2022-07-12T06:41:19;4.80;;;4.47;;
58758;SDS011;46777;47.482;19.054;2022-07-12T06:44:04;5.15;;;4.75;;
58758;SDS011;46777;47.482;19.054;2022-07-12T06:46:49;4.85;;;4.50;;
58758;SDS011;46777;47.482;19.054;2022-07-12T06:49:34;5.20;;;4.70;;
58758;SDS011;46777;47.482;19.054;2022-07-12T06:52:19;5.30;;;4.80;;
58758;SDS011;46777;47.482;19.054;2022-07-12T06:55:04;5.20;;;4.80;;
58758;SDS011;46777;47.482;19.054;2022-07-12T06:57:49;6.60;;;5.30;;
58758;SDS011;46777;47.482;19.054;2022-07-12T07:00:34;4.78;;;4.38;;
58758;SDS011;46777;47.482;19.054;2022-07-12T07:03:19;5.10;;;4.70;;
58758;SDS011;46777;47.482;19.054;2022-07-12T07:06:04;5.10;;;4.60;;
58758;SDS011;46777;47.482;19.054;2022-07-12T07:08:48;4.75;;;4.40;;
58758;SDS011;46777;47.482;19.054;2022-07-12T07:11:34;7.28;;;4.90;;
58758;SDS011;46777;47.482;19.054;2022-07-12T07:14:19;4.90;;;4.38;;
58758;SDS011;46777;47.482;19.054;2022-07-12T07:17:04;6.57;;;4.50;;
58758;SDS011;46777;47.482;19.054;2022-07-12T07:19:49;5.75;;;4.78;;
58758;SDS011;46777;47.482;19.054;2022-07-12T07:22:34;5.22;;;4.72;;
58758;SDS011;46777;47.482;19.054;2022-07-12T07:25:18;5.10;;;4.70;;
58758;SDS011;46777;47.482;19.054;2022-07-12T07:28:03;7.22;;;5.03;;
58758;SDS011;46777;47.482;19.054;2022-07-12T07:30:48;6.80;;;6.15;;
58758;SDS011;46777;47.482;19.054;2022-07-12T07:33:39;6.28;;;5.68;;
58758;SDS011;46777;47.482;19.054;2022-07-12T07:36:24;5.32;;;4.93;;
58758;SDS011;46777;47.482;19.054;2022-07-12T07:39:09;7.80;;;5.38;;
58758;SDS011;46777;47.482;19.054;2022-07-12T07:41:54;6.65;;;5.10;;
58758;SDS011;46777;47.482;19.054;2022-07-12T07:44:39;4.97;;;4.57;;
58758;SDS011;46777;47.482;19.054;2022-07-12T07:47:23;6.15;;;5.50;;
58758;SDS011;46777;47.482;19.054;2022-07-12T07:50:08;6.35;;;5.22;;
58758;SDS011;46777;47.482;19.054;2022-07-12T07:52:53;7.38;;;5.45;;
58758;SDS011;46777;47.482;19.054;2022-07-12T07:55:38;6.93;;;5.47;;
58758;SDS011;46777;47.482;19.054;2022-07-12T07:58:23;9.73;;;5.70;;
58758;SDS011;46777;47.482;19.054;2022-07-12T08:01:08;7.32;;;5.32;;
58758;SDS011;46777;47.482;19.054;2022-07-12T08:03:53;7.03;;;5.60;;
58758;SDS011;46777;47.482;19.054;2022-07-12T08:06:38;6.82;;;5.85;;
58758;SDS011;46777;47.482;19.054;2022-07-12T08:09:23;5.95;;;5.45;;
58758;SDS011;46777;47.482;19.054;2022-07-12T08:12:08;6.15;;;5.00;;
58758;SDS011;46777;47.482;19.054;2022-07-12T08:14:52;6.05;;;5.45;;
58758;SDS011;46777;47.482;19.054;2022-07-12T08:17:37;5.75;;;5.20;;
58758;SDS011;46777;47.482;19.054;2022-07-12T08:20:22;5.45;;;4.95;;
58758;SDS011;46777;47.482;19.054;2022-07-12T08:23:08;5.65;;;5.10;;
58758;SDS011;46777;47.482;19.054;2022-07-12T08:25:53;5.22;;;4.82;;
58758;SDS011;46777;47.482;19.054;2022-07-12T08:28:38;7.45;;;5.45;;
58758;SDS011;46777;47.482;19.054;2022-07-12T08:31:23;5.88;;;5.15;;
58758;SDS011;46777;47.482;19.054;2022-07-12T08:34:07;5.57;;;5.18;;
58758;SDS011;46777;47.482;19.054;2022-07-12T08:36:52;5.47;;;5.07;;
58758;SDS011;46777;47.482;19.054;2022-07-12T08:39:37;6.18;;;5.63;;
58758;SDS011;46777;47.482;19.054;2022-07-12T08:42:22;5.82;;;5.30;;
58758;SDS011;46777;47.482;19.054;2022-07-12T08:45:08;6.00;;;5.50;;
58758;SDS011;46777;47.482;19.054;2022-07-12T08:47:53;6.13;;;5.63;;
58758;SDS011;46777;47.482;19.054;2022-07-12T08:50:39;6.35;;;5.50;;
58758;SDS011;46777;47.482;19.054;2022-07-12T08:53:23;6.63;;;5.55;;
58758;SDS011;46777;47.482;19.054;2022-07-12T08:56:29;6.00;;;5.60;;
58758;SDS011;46777;47.482;19.054;2022-07-12T08:59:18;6.30;;;5.70;;
58758;SDS011;46777;47.482;19.054;2022-07-12T09:02:04;6.13;;;5.72;;
58758;SDS011;46777;47.482;19.054;2022-07-12T09:04:49;5.55;;;5.10;;
58758;SDS011;46777;47.482;19.054;2022-07-12T09:07:50;6.17;;;5.77;;
58758;SDS011;46777;47.482;19.054;2022-07-12T09:13:47;5.70;;;5.30;;
58758;SDS011;46777;47.482;19.054;2022-07-12T09:16:39;6.03;;;5.50;;
58758;SDS011;46777;47.482;19.054;2022-07-12T09:19:23;6.03;;;5.53;;
58758;SDS011;46777;47.482;19.054;2022-07-12T09:22:15;6.38;;;5.72;;
58758;SDS011;46777;47.482;19.054;2022-07-12T09:25:15;6.10;;;5.60;;
58758;SDS011;46777;47.482;19.054;2022-07-12T09:28:05;5.90;;;5.45;;
58758;SDS011;46777;47.482;19.054;2022-07-12T09:30:52;6.38;;;5.78;;
58758;SDS011;46777;47.482;19.054;2022-07-12T09:33:38;6.18;;;5.68;;
58758;SDS011;46777;47.482;19.054;2022-07-12T09:36:41;5.97;;;5.45;;
58758;SDS011;46777;47.482;19.054;2022-07-12T09:39:26;7.00;;;5.80;;
58758;SDS011;46777;47.482;19.054;2022-07-12T09:42:11;6.03;;;5.57;;
58758;SDS011;46777;47.482;19.054;2022-07-12T09:44:56;6.15;;;5.65;;
58758;SDS011;46777;47.482;19.054;2022-07-12T09:47:42;5.88;;;5.38;;
58758;SDS011;46777;47.482;19.054;2022-07-12T09:50:29;5.72;;;5.25;;
58758;SDS011;46777;47.482;19.054;2022-07-12T09:53:17;6.00;;;5.40;;
58758;SDS011;46777;47.482;19.054;2022-07-12T09:56:06;9.85;;;5.70;;
58758;SDS011;46777;47.482;19.054;2022-07-12T09:58:54;5.75;;;5.30;;
58758;SDS011;46777;47.482;19.054;2022-07-12T10:01:43;6.30;;;5.80;;
58758;SDS011;46777;47.482;19.054;2022-07-12T10:04:30;6.28;;;5.68;;
58758;SDS011;46777;47.482;19.054;2022-07-12T10:07:15;5.78;;;5.38;;
58758;SDS011;46777;47.482;19.054;2022-07-12T10:10:00;5.80;;;5.30;;
58758;SDS011;46777;47.482;19.054;2022-07-12T10:12:45;5.85;;;5.10;;
58758;SDS011;46777;47.482;19.054;2022-07-12T10:15:30;5.93;;;5.38;;
58758;SDS011;46777;47.482;19.054;2022-07-12T10:18:20;5.05;;;4.55;;
58758;SDS011;46777;47.482;19.054;2022-07-12T10:21:18;5.70;;;5.10;;
58758;SDS011;46777;47.482;19.054;2022-07-12T10:24:13;6.03;;;5.50;;
58758;SDS011;46777;47.482;19.054;2022-07-12T10:30:15;6.20;;;5.70;;
58758;SDS011;46777;47.482;19.054;2022-07-12T10:33:01;5.85;;;5.28;;
58758;SDS011;46777;47.482;19.054;2022-07-12T10:36:00;5.65;;;5.25;;
58758;SDS011;46777;47.482;19.054;2022-07-12T10:38:48;5.75;;;5.25;;
58758;SDS011;46777;47.482;19.054;2022-07-12T10:44:50;6.65;;;5.40;;
58758;SDS011;46777;47.482;19.054;2022-07-12T10:47:52;5.25;;;4.85;;
58758;SDS011;46777;47.482;19.054;2022-07-12T10:50:57;6.28;;;5.75;;
58758;SDS011;46777;47.482;19.054;2022-07-12T10:53:42;5.65;;;5.15;;
58758;SDS011;46777;47.482;19.054;2022-07-12T10:56:30;5.80;;;5.30;;
58758;SDS011;46777;47.482;19.054;2022-07-12T10:59:17;6.53;;;5.15;;
58758;SDS011;46777;47.482;19.054;2022-07-12T11:02:02;6.13;;;5.53;;
58758;SDS011;46777;47.482;19.054;2022-07-12T11:04:48;8.00;;;5.53;;
58758;SDS011;46777;47.482;19.054;2022-07-12T11:07:34;8.52;;;5.25;;
58758;SDS011;46777;47.482;19.054;2022-07-12T11:10:19;5.70;;;5.20;;
58758;SDS011;46777;47.482;19.054;2022-07-12T11:13:19;5.35;;;4.90;;
58758;SDS011;46777;47.482;19.054;2022-07-12T11:16:06;5.65;;;5.10;;
58758;SDS011;46777;47.482;19.054;2022-07-12T11:18:51;7.18;;;5.38;;
58758;SDS011;46777;47.482;19.054;2022-07-12T11:21:37;5.53;;;5.07;;
58758;SDS011;46777;47.482;19.054;2022-07-12T11:24:22;5.95;;;5.05;;
58758;SDS011;46777;47.482;19.054;2022-07-12T11:27:12;9.57;;;8.77;;
58758;SDS011;46777;47.482;19.054;2022-07-12T11:29:58;8.93;;;8.13;;
58758;SDS011;46777;47.482;19.054;2022-07-12T11:32:44;5.80;;;5.22;;
58758;SDS011;46777;47.482;19.054;2022-07-12T11:35:30;6.55;;;6.10;;
58758;SDS011;46777;47.482;19.054;2022-07-12T11:38:16;8.32;;;5.93;;
58758;SDS011;46777;47.482;19.054;2022-07-12T11:41:09;7.07;;;5.68;;
58758;SDS011;46777;47.482;19.054;2022-07-12T11:43:55;5.80;;;5.20;;
58758;SDS011;46777;47.482;19.054;2022-07-12T11:46:39;9.13;;;8.60;;
58758;SDS011;46777;47.482;19.054;2022-07-12T11:49:24;9.20;;;8.50;;
58758;SDS011;46777;47.482;19.054;2022-07-12T11:52:11;8.80;;;8.25;;
58758;SDS011;46777;47.482;19.054;2022-07-12T11:54:57;8.95;;;8.20;;
58758;SDS011;46777;47.482;19.054;2022-07-12T11:57:42;9.20;;;8.40;;
58758;SDS011;46777;47.482;19.054;2022-07-12T12:00:27;9.98;;;9.27;;
58758;SDS011;46777;47.482;19.054;2022-07-12T12:03:13;9.80;;;9.10;;
58758;SDS011;46777;47.482;19.054;2022-07-12T12:05:58;9.05;;;8.48;;
58758;SDS011;46777;47.482;19.054;2022-07-12T12:08:43;9.30;;;8.70;;
58758;SDS011;46777;47.482;19.054;2022-07-12T12:11:29;10.15;;;9.35;;
58758;SDS011;46777;47.482;19.054;2022-07-12T12:14:14;9.55;;;8.85;;
58758;SDS011;46777;47.482;19.054;2022-07-12T12:16:59;7.60;;;6.90;;
58758;SDS011;46777;47.482;19.054;2022-07-12T12:19:44;7.35;;;6.80;;
58758;SDS011;46777;47.482;19.054;2022-07-12T12:22:32;9.95;;;9.35;;
58758;SDS011;46777;47.482;19.054;2022-07-12T12:25:18;7.03;;;6.63;;
58758;SDS011;46777;47.482;19.054;2022-07-12T12:28:03;7.47;;;6.72;;
58758;SDS011;46777;47.482;19.054;2022-07-12T12:30:50;7.72;;;7.07;;
58758;SDS011;46777;47.482;19.054;2022-07-12T12:36:55;10.90;;;10.20;;
58758;SDS011;46777;47.482;19.054;2022-07-12T12:39:39;10.75;;;10.05;;
58758;SDS011;46777;47.482;19.054;2022-07-12T12:42:25;7.57;;;7.07;;
58758;SDS011;46777;47.482;19.054;2022-07-12T12:45:44;7.20;;;6.70;;
58758;SDS011;46777;47.482;19.054;2022-07-12T12:48:33;7.68;;;7.00;;
58758;SDS011;46777;47.482;19.054;2022-07-12T12:51:19;9.00;;;8.50;;
58758;SDS011;46777;47.482;19.054;2022-07-12T12:54:03;8.07;;;7.57;;
58758;SDS011;46777;47.482;19.054;2022-07-12T12:56:48;9.18;;;8.48;;
58758;SDS011;46777;47.482;19.054;2022-07-12T12:59:34;10.02;;;9.23;;
58758;SDS011;46777;47.482;19.054;2022-07-12T13:02:19;9.60;;;9.00;;
58758;SDS011;46777;47.482;19.054;2022-07-12T13:05:04;10.18;;;9.48;;
58758;SDS011;46777;47.482;19.054;2022-07-12T13:07:49;10.10;;;9.50;;
58758;SDS011;46777;47.482;19.054;2022-07-12T13:10:35;5.80;;;5.43;;
58758;SDS011;46777;47.482;19.054;2022-07-12T13:13:20;7.28;;;6.78;;
58758;SDS011;46777;47.482;19.054;2022-07-12T13:16:05;6.03;;;5.63;;
58758;SDS011;46777;47.482;19.054;2022-07-12T13:18:50;4.57;;;4.28;;
58758;SDS011;46777;47.482;19.054;2022-07-12T13:21:35;5.18;;;4.80;;
58758;SDS011;46777;47.482;19.054;2022-07-12T13:24:20;5.20;;;4.80;;
58758;SDS011;46777;47.482;19.054;2022-07-12T13:27:05;6.10;;;5.20;;
58758;SDS011;46777;47.482;19.054;2022-07-12T13:29:49;5.03;;;4.72;;
58758;SDS011;46777;47.482;19.054;2022-07-12T13:32:35;5.03;;;4.72;;
58758;SDS011;46777;47.482;19.054;2022-07-12T13:35:20;6.07;;;4.90;;
58758;SDS011;46777;47.482;19.054;2022-07-12T13:38:05;5.28;;;4.80;;
58758;SDS011;46777;47.482;19.054;2022-07-12T13:40:50;4.80;;;4.50;;
58758;SDS011;46777;47.482;19.054;2022-07-12T13:43:35;5.15;;;4.80;;
58758;SDS011;46777;47.482;19.054;2022-07-12T13:46:20;5.70;;;5.30;;
58758;SDS011;46777;47.482;19.054;2022-07-12T13:49:05;5.88;;;5.47;;
58758;SDS011;46777;47.482;19.054;2022-07-12T13:51:49;5.70;;;5.30;;
58758;SDS011;46777;47.482;19.054;2022-07-12T13:54:34;5.80;;;5.30;;
58758;SDS011;46777;47.482;19.054;2022-07-12T13:57:19;5.55;;;5.20;;
58758;SDS011;46777;47.482;19.054;2022-07-12T14:00:08;5.55;;;5.13;;
58758;SDS011;46777;47.482;19.054;2022-07-12T14:02:56;5.43;;;5.13;;
58758;SDS011;46777;47.482;19.054;2022-07-12T14:05:41;5.80;;;5.40;;
58758;SDS011;46777;47.482;19.054;2022-07-12T14:08:26;5.68;;;5.20;;
58758;SDS011;46777;47.482;19.054;2022-07-12T14:11:11;6.28;;;5.78;;
58758;SDS011;46777;47.482;19.054;2022-07-12T14:13:56;6.05;;;5.30;;
58758;SDS011;46777;47.482;19.054;2022-07-12T14:16:40;6.20;;;5.60;;
58758;SDS011;46777;47.482;19.054;2022-07-12T14:19:25;5.38;;;5.03;;
58758;SDS011;46777;47.482;19.054;2022-07-12T14:22:10;5.80;;;5.20;;
58758;SDS011;46777;47.482;19.054;2022-07-12T14:24:55;5.93;;;5.50;;
58758;SDS011;46777;47.482;19.054;2022-07-12T14:27:40;5.72;;;5.40;;
58758;SDS011;46777;47.482;19.054;2022-07-12T14:30:26;6.15;;;5.55;;
58758;SDS011;46777;47.482;19.054;2022-07-12T14:33:11;6.93;;;6.43;;
58758;SDS011;46777;47.482;19.054;2022-07-12T14:35:56;5.03;;;4.72;;
58758;SDS011;46777;47.482;19.054;2022-07-12T14:38:41;5.30;;;4.90;;
58758;SDS011;46777;47.482;19.054;2022-07-12T14:41:26;5.13;;;4.80;;
58758;SDS011;46777;47.482;19.054;2022-07-12T14:44:11;5.78;;;5.30;;
58758;SDS011;46777;47.482;19.054;2022-07-12T14:46:56;5.50;;;5.10;;
58758;SDS011;46777;47.482;19.054;2022-07-12T14:49:41;6.03;;;5.40;;
58758;SDS011;46777;47.482;19.054;2022-07-12T14:52:25;6.28;;;5.80;;
58758;SDS011;46777;47.482;19.054;2022-07-12T14:55:10;5.60;;;5.20;;
58758;SDS011;46777;47.482;19.054;2022-07-12T14:57:56;5.70;;;5.30;;
58758;SDS011;46777;47.482;19.054;2022-07-12T15:00:41;5.50;;;5.00;;
58758;SDS011;46777;47.482;19.054;2022-07-12T15:03:27;5.30;;;5.00;;
58758;SDS011;46777;47.482;19.054;2022-07-12T15:06:12;4.40;;;4.10;;
58758;SDS011;46777;47.482;19.054;2022-07-12T15:08:57;4.60;;;4.18;;
58758;SDS011;46777;47.482;19.054;2022-07-12T15:11:42;5.28;;;3.83;;
58758;SDS011;46777;47.482;19.054;2022-07-12T15:14:26;5.38;;;4.88;;
58758;SDS011;46777;47.482;19.054;2022-07-12T15:17:11;6.07;;;5.45;;
58758;SDS011;46777;47.482;19.054;2022-07-12T15:19:57;5.07;;;4.70;;
58758;SDS011;46777;47.482;19.054;2022-07-12T15:22:42;5.65;;;5.25;;
58758;SDS011;46777;47.482;19.054;2022-07-12T15:25:27;5.07;;;4.70;;
58758;SDS011;46777;47.482;19.054;2022-07-12T15:28:11;5.05;;;4.65;;
58758;SDS011;46777;47.482;19.054;2022-07-12T15:30:56;5.32;;;4.80;;
58758;SDS011;46777;47.482;19.054;2022-07-12T15:33:42;4.90;;;4.60;;
58758;SDS011;46777;47.482;19.054;2022-07-12T15:36:26;5.40;;;4.93;;
58758;SDS011;46777;47.482;19.054;2022-07-12T15:39:12;4.78;;;4.47;;
58758;SDS011;46777;47.482;19.054;2022-07-12T15:41:56;4.82;;;4.45;;
58758;SDS011;46777;47.482;19.054;2022-07-12T15:44:41;4.30;;;3.90;;
58758;SDS011;46777;47.482;19.054;2022-07-12T15:47:26;4.50;;;4.10;;
58758;SDS011;46777;47.482;19.054;2022-07-12T15:50:11;4.88;;;4.30;;
58758;SDS011;46777;47.482;19.054;2022-07-12T15:52:56;5.00;;;4.60;;
58758;SDS011;46777;47.482;19.054;2022-07-12T15:56:00;5.93;;;5.38;;
58758;SDS011;46777;47.482;19.054;2022-07-12T15:58:47;5.50;;;5.00;;
58758;SDS011;46777;47.482;19.054;2022-07-12T16:01:31;5.70;;;5.20;;
58758;SDS011;46777;47.482;19.054;2022-07-12T16:04:16;5.38;;;4.90;;
58758;SDS011;46777;47.482;19.054;2022-07-12T16:07:02;5.53;;;5.03;;
58758;SDS011;46777;47.482;19.054;2022-07-12T16:09:46;4.68;;;4.30;;
58758;SDS011;46777;47.482;19.054;2022-07-12T16:12:31;4.68;;;4.28;;
58758;SDS011;46777;47.482;19.054;2022-07-12T16:15:16;4.43;;;4.00;;
58758;SDS011;46777;47.482;19.054;2022-07-12T16:18:02;5.97;;;4.45;;
58758;SDS011;46777;47.482;19.054;2022-07-12T16:20:47;4.63;;;4.22;;
58758;SDS011;46777;47.482;19.054;2022-07-12T16:23:32;5.00;;;4.50;;
58758;SDS011;46777;47.482;19.054;2022-07-12T16:26:17;4.70;;;4.10;;
58758;SDS011;46777;47.482;19.054;2022-07-12T16:29:01;4.68;;;4.30;;
58758;SDS011;46777;47.482;19.054;2022-07-12T16:31:47;4.13;;;3.80;;
58758;SDS011;46777;47.482;19.054;2022-07-12T16:34:33;4.10;;;3.80;;
58758;SDS011;46777;47.482;19.054;2022-07-12T16:37:18;4.55;;;4.15;;